Weather Top, Arizona (BMGR) Weather observations

Data are for 10 minute period ending at time listed.
 Day   Time   Solar   Ave.   Ave.  Ave.  Vector  Max.   Total    
  of    of     Rad.   Air    Rel.  Wind   Wind   Wind  Precip.   
Year   Day            Temp.  Hum.  Speed  Dir.   Gust            
2026   (MST)  Kw/m2    F      %     mph   deg.    mph    in.     
-----------------------------------------------------------------
 244   11:35   0.84   86.2    43    7.8   119    12.1    0.00 
 244   11:40   0.85   86.8    41    7.6    95    12.1    0.00 
 244   11:45   0.85   86.9    41    7.7    88    12.1    0.00 
 244   11:50   0.86   87.4    41    4.9   130     8.8    0.00 
 244   11:55   0.86   87.7    39    4.5   125     7.7    0.00 
 244   12:00   0.86   88.2    38    5.0   175     9.3    0.00 
 244   12:05   0.87   87.8    38    4.6   130     9.9    0.00 
 244   12:10   0.87   88.4    37    5.3   153     9.3    0.00 
 244   12:15   0.87   89.3    37    2.9   104     8.8    0.00 
 244   12:20   0.87   90.9    35    5.3   178    11.0    0.00 
 244   12:25   0.87   89.9    35    4.2   192     9.9    0.00 
 244   12:30   0.87   90.9    35    3.8   199     8.2    0.00 
 244   12:35   0.87   91.4    33    5.7   176    10.5    0.00 
 244   12:40   0.87   90.5    34    5.7   146    11.0    0.00 
 244   12:45   0.87   89.6    35    6.1   148    10.5    0.00 
 244   12:50   0.87   89.4    36    6.2   124    13.3    0.00 
 244   12:55   0.87   89.5    35    6.7   124    12.7    0.00 
 244   13:00   0.86   89.4    35    5.0   109     8.8    0.00 
 244   13:05   0.86   89.4    35    6.1   113    12.7    0.00 
 244   13:10   0.86   90.7    33    4.5   189     8.8    0.00 
 244   13:15   0.85   92.4    32    6.1   168    12.1    0.00 
 244   13:20   0.85   92.5    31    5.8   208     9.3    0.00 
 244   13:25   0.85   93.1    31    5.7   190    10.5    0.00 
 244   13:30   0.84   94.1    30    3.2    84     7.7    0.00 
 244   13:35   0.83   93.3    31    3.8   200     6.5    0.00 
 244   13:40   0.83   93.7    31    4.6   186     8.8    0.00 
 244   13:45   0.82   92.8    32    5.0   184    10.5    0.00 
 244   13:50   0.82   92.4    32    3.6   179     8.2    0.00 
 244   13:55   0.81   92.2    32    5.1    96    10.5    0.00 
 244   14:00   0.80   94.0    31    5.0   184    11.0    0.00 
 244   14:05   0.80   93.6    30    6.4   204    12.7    0.00 
 244   14:10   0.79   93.2    31    4.3   250     9.9    0.00 
 244   14:15   0.78   93.2    31    4.4   258     8.8    0.00 
 244   14:20   0.77   92.9    31    2.3    17     7.1    0.00 
 244   14:25   0.76   93.9    30    5.2   266     9.3    0.00 
 244   14:30   0.69   94.7    30    3.9    59     9.3    0.00 
 244   14:35   0.75   95.0    30    3.8   216     9.9    0.00 
 244   14:40   0.77   94.6    30    3.2   109     6.0    0.00 
 244   14:45   0.71   95.0    29    3.4   262     7.1    0.00 
 244   14:50   0.78   93.3    30    3.2   321     7.1    0.00 
 244   14:55   0.78   94.4    30    5.6   223    10.5    0.00 
 244   15:00   0.75   94.9    29    5.8   230    11.6    0.00 
 244   15:05   0.76   93.9    29    3.1   213     8.2    0.00 
 244   15:10   0.75   94.2    29    3.0   275     9.3    0.00 
 244   15:15   0.74   94.8    28    4.3   227    10.5    0.00 
 244   15:20   0.73   94.9    26    3.0   239     8.2    0.00 
 244   15:25   0.52   95.4    26    3.9   199    11.0    0.00 
 244   15:30   0.21   93.2    29    6.7   201    11.0    0.00 
 244   15:35   0.13   92.5    30    4.5   221    12.1    0.00 
 244   15:40   0.15   92.4    30    4.1   147     7.7    0.00 
 244   15:45   0.46   92.4    30    2.9   140     8.2    0.00 
 244   15:50   0.71   93.4    30    2.1   142     7.1    0.00 
 244   15:55   0.67   94.8    28    3.7   152    12.1    0.00 
 244   16:00   0.64   96.8    27    3.8   111     9.3    0.00 
 244   16:05   0.37   98.2    26    5.7   164    10.5    0.00 
 244   16:10   0.59   97.1    26    4.4   167     8.2    0.00 
 244   16:15   0.60   97.3    26    3.2   144     8.2    0.00 
 244   16:20   0.58   96.7    26    3.8    89     8.8    0.00 
 244   16:25   0.57   96.4    27    3.8   152     7.7    0.00 
 244   16:30   0.55   94.7    29    4.3   102     7.7    0.00 
 244   16:35   0.52   94.5    30    3.1   150     7.7    0.00 
 244   16:40   0.48   95.0    29    4.5   152     8.8    0.00 
 244   16:45   0.44   93.3    30    3.4   155     6.5    0.00 
 244   16:50   0.42   94.6    29    5.3   168    13.8    0.00 
 244   16:55   0.35   95.1    28    7.1   152    13.3    0.00 
 244   17:00   0.11   93.0    31    3.2   162     6.5    0.00 
 244   17:05   0.08   92.7    31    3.9   163     7.1    0.00 
 244   17:10   0.08   92.6    31    5.4   191    11.6    0.00 
 244   17:15   0.08   91.5    33    6.5   141    11.0    0.00 
 244   17:20   0.23   91.2    33    6.9   118    12.1    0.00 
 244   17:25   0.15   91.3    33    7.9   108    13.8    0.00 
 244   17:30   0.13   90.6    34    5.9   133    11.0    0.00 
 244   17:35   0.28   90.6    34    6.3   119    11.0    0.00 
 244   17:40   0.28   91.1    33    8.0   119    13.3    0.00 
 244   17:45   0.27   90.6    34    8.5   112    13.3    0.00 
 244   17:50   0.26   90.7    34    6.0   110     9.9    0.00 
 244   17:55   0.26   91.1    33    5.4   123     7.7    0.00 
 244   18:00   0.25   91.3    33    5.7   126     8.8    0.00 
 244   18:05   0.22   91.0    33    7.1   117    11.0    0.00 
 244   18:10   0.19   90.8    34    7.6   119    11.0    0.00 
 244   18:15   0.16   90.4    33    8.1   120    15.5    0.00 
 244   18:20   0.14   89.7    35   10.2   124    16.0    0.00 
 244   18:25   0.09   88.8    36    7.9   127    14.4    0.00 
 244   18:30   0.06   88.0    37    9.9   118    14.4    0.00 
 244   18:35   0.05   88.0    37   11.1   123    17.7    0.00 
 244   18:40   0.03   88.0    37    9.9   120    14.4    0.00 
 244   18:45   0.01   87.8    37    9.3   124    14.9    0.00 
 244   18:50   0.01   87.4    38    9.2   119    12.7    0.00 
 244   18:55   0.00   87.3    38    7.9   123    11.6    0.00 
 244   19:00   0.00   87.0    38    6.3   122     8.8    0.00 
 244   19:05   0.00   86.9    38    6.2   133     9.3    0.00 
 244   19:10   0.00   86.9    38    6.0   124     8.8    0.00 
 244   19:15   0.00   86.9    38    5.9   130     7.7    0.00 
 244   19:20   0.00   86.7    38    5.4   114     7.1    0.00 
 244   19:25   0.00   86.5    38    4.0   120     7.1    0.00 
 244   19:30   0.00   86.4    38    2.8   117     4.9    0.00 
 244   19:35   0.00   86.5    38    3.9   123     6.0    0.00 
 244   19:40   0.00   86.5    38    3.1   114     4.9    0.00 
 244   19:45   0.00   86.7    37    2.4   132     3.8    0.00 
 244   19:50   0.00   86.9    37    2.0   131     3.8    0.00 
 244   19:55   0.00   86.7    38    1.0   132     3.2    0.00 
 244   20:00   0.00   86.7    37    1.9   117     3.2    0.00 
 244   20:05   0.00   86.8    37    1.4   159     4.3    0.00 
 244   20:10   0.00   86.9    37    2.9   157     4.3    0.00 
 244   20:15   0.00   86.9    38    3.4   146     6.0    0.00 
 244   20:20   0.00   86.9    38    3.7   183     6.0    0.00 
 244   20:25   0.00   87.2    38    4.0   202     7.1    0.00 
 244   20:30   0.00   87.4    38    4.0   223     8.2    0.00 
 244   20:35   0.00   87.4    39    3.8   223     7.1    0.00 
 244   20:40   0.00   87.1    40    3.5   214     7.7    0.00 
 244   20:45   0.00   86.9    41    2.2   194     5.4    0.00 
 244   20:50   0.00   86.6    44    2.3    93     4.9    0.00 
 244   20:55   0.00   86.2    45    2.8    83     6.5    0.00 
 244   21:00   0.00   85.8    47    3.3    55    11.6    0.00 
 244   21:05   0.00   85.6    49    4.6    61     8.2    0.00 
 244   21:10   0.00   85.4    49    4.5    71     8.8    0.00 
 244   21:15   0.00   85.2    49    3.2    56     8.2    0.00 
 244   21:20   0.00   85.1    50    2.8    72     8.2    0.00 
 244   21:25   0.00   84.9    50    3.4    77     6.0    0.00 
 244   21:30   0.00   84.8    50    2.9    61     5.4    0.00 
 244   21:35   0.00   84.6    50    3.1    60     5.4    0.00 
 244   21:40   0.00   84.4    51    3.3    77     6.5    0.00 
 244   21:45   0.00   84.4    51    3.1    88     6.5    0.00 
 244   21:50   0.00   84.4    51    2.8    95     6.0    0.00 
 244   21:55   0.00   84.1    52    3.4    66     6.5    0.00 
 244   22:00   0.00   84.0    52    3.1    79     6.0    0.00 
 244   22:05   0.00   83.9    52    3.4    84     6.5    0.00 
 244   22:10   0.00   83.8    52    3.2   102     7.7    0.00 
 244   22:15   0.00   83.7    52    2.8    85     6.5    0.00 
 244   22:20   0.00   83.5    53    1.7    91     4.3    0.00 
 244   22:25   0.00   83.2    53    2.4    70     5.4    0.00 
 244   22:30   0.00   83.3    53    1.2   145     4.3    0.00 
 244   22:35   0.00   83.2    53    1.5   186     4.9    0.00 
 244   22:40   0.00   83.2    53    1.5   218     5.4    0.00 
 244   22:45   0.00   83.3    53    2.1   239     4.3    0.00 
 244   22:50   0.00   83.2    53    0.7   112     3.2    0.00 
 244   22:55   0.00   83.1    53    1.2   258     3.8    0.00 
 244   23:00   0.00   83.2    53    1.0   237     2.6    0.00 
 244   23:05   0.00   83.3    53    3.0   221     4.9    0.00 
 244   23:10   0.00   83.6    52    3.8   214     5.4    0.00 
 244   23:15   0.00   83.6    52    5.1   215     7.7    0.00 
 244   23:20   0.00   83.4    52    5.1   209     8.8    0.00 
 244   23:25   0.00   83.2    53    3.5   213     6.5    0.00 
 244   23:30   0.00   83.1    53    4.4   214     7.7    0.00 
 244   23:35   0.00   83.0    53    5.1   205     7.1    0.00 
 244   23:40   0.00   83.0    53    4.7   204     7.1    0.00 
 244   23:45   0.00   82.5    54    3.2   186     6.0    0.00 
 244   23:50   0.00   82.3    54    4.1   200     6.5    0.00 
 244   23:55   0.00   82.5    53    3.5   200     5.4    0.00 
 245    0:00   0.00   82.6    53    4.5   206     7.1    0.00 
 245    0:05   0.00   82.5    52    4.8   173     7.1    0.00 
 245    0:10   0.00   82.1    54    3.4   127     6.0    0.00 
 245    0:15   0.00   82.0    53    3.6   142     5.4    0.00 
 245    0:20   0.00   82.0    53    2.1   159     7.7    0.00 
 245    0:25   0.00   82.2    52    5.9   204     9.9    0.00 
 245    0:30   0.00   82.5    51    7.0   210    12.1    0.00 
 245    0:35   0.00   82.5    51    6.4   218     9.9    0.00 
 245    0:40   0.00   82.4    53    5.7   224     9.9    0.00 
 245    0:45   0.00   82.2    54    4.6   227     7.7    0.00 
 245    0:50   0.00   82.0    55    4.4   227     8.8    0.00 
 245    0:55   0.00   82.0    56    5.3   214     7.1    0.00 
 245    1:00   0.00   82.0    55    6.9   212     9.9    0.00 
 245    1:05   0.00   82.0    55    5.7   207     8.2    0.00 
 245    1:10   0.00   82.0    55    5.1   205     7.1    0.00 
 245    1:15   0.00   82.0    55    4.6   221     7.1    0.00 
 245    1:20   0.00   81.9    55    2.7   235     4.9    0.00 
 245    1:25   0.00   81.6    56    2.1   226     4.9    0.00 
 245    1:30   0.00   81.5    56    2.8   230     4.9    0.00 
 245    1:35   0.00   81.5    57    2.9   231     5.4    0.00 
 245    1:40   0.00   81.2    58    1.4   244     3.8    0.00 
 245    1:45   0.00   80.9    59    1.5   226     3.8    0.00 
 245    1:50   0.00   80.8    60    3.0   218     4.3    0.00 
 245    1:55   0.00   80.9    60    3.3   220     6.0    0.00 
 245    2:00   0.00   81.0    60    2.8   219     5.4    0.00 
 245    2:05   0.00   80.9    60    2.0   222     4.3    0.00 
 245    2:10   0.00   80.7    60    2.5   220     4.3    0.00 
 245    2:15   0.00   80.6    60    3.3   198     5.4    0.00 
 245    2:20   0.00   80.5    60    4.2   188     6.5    0.00 
 245    2:25   0.00   80.3    60    3.4   184     4.3    0.00 
 245    2:30   0.00   80.3    59    3.7   194     6.0    0.00 
 245    2:35   0.00   80.6    58    3.5   205     6.5    0.00 
 245    2:40   0.00   80.5    58    4.3   202     6.0    0.00 
 245    2:45   0.00   80.7    57    5.5   219     8.2    0.00 
 245    2:50   0.00   80.8    56    5.1   230    10.5    0.00 
 245    2:55   0.00   80.8    56    4.3   228     8.2    0.00 
 245    3:00   0.00   80.5    57    4.1   233     7.7    0.00 
 245    3:05   0.00   80.1    58    2.5   229     4.9    0.00 
 245    3:10   0.00   79.8    59    4.1   224     8.2    0.00 
 245    3:15   0.00   79.9    58    4.9   219     8.8    0.00 
 245    3:20   0.00   79.9    57    5.0   219    11.0    0.00 
 245    3:25   0.00   79.8    56    6.5   210    10.5    0.00 
 245    3:30   0.00   79.4    57    4.4   191     7.7    0.00 
 245    3:35   0.00   78.7    60    2.2   150     5.4    0.00 
 245    3:40   0.00   78.3    59    2.1   159     6.0    0.00 
 245    3:45   0.00   78.3    59    1.6   147     4.9    0.00 
 245    3:50   0.00   78.1    60    2.6   120     5.4    0.00 
 245    3:55   0.00   78.1    58    4.7   193     8.8    0.00 
 245    4:00   0.00   78.3    56    5.2   188     8.2    0.00 
 245    4:05   0.00   78.3    55    5.7   181     8.8    0.00 
 245    4:10   0.00   78.5    53    6.3   193     9.9    0.00 
 245    4:15   0.00   79.1    51    6.6   202     9.9    0.00 
 245    4:20   0.00   79.1    50    6.5   199     9.9    0.00 
 245    4:25   0.00   78.9    50    4.7   186     7.1    0.00 
 245    4:30   0.00   78.5    52    3.7   169     7.1    0.00 
 245    4:35   0.00   77.8    57    3.9   118     6.0    0.00 
 245    4:40   0.00   77.6    58    4.2   113     7.1    0.00 
 245    4:45   0.00   77.6    58    4.7   121     7.1    0.00 
 245    4:50   0.00   77.6    58    4.3   134     7.1    0.00 
 245    4:55   0.00   77.7    58    3.8   159     7.1    0.00 
 245    5:00   0.00   77.7    57    3.6   138     6.0    0.00 
 245    5:05   0.00   77.5    58    3.5   145     6.0    0.00 
 245    5:10   0.00   77.5    58    3.2   156     5.4    0.00 
 245    5:15   0.00   78.2    52    4.6   202     8.8    0.00 
 245    5:20   0.00   78.8    50    3.4   234     7.7    0.00 
 245    5:25   0.00   78.8    49    3.2   202     6.5    0.00 
 245    5:30   0.00   78.4    51    2.3   175     5.4    0.00 
 245    5:35   0.00   77.8    53    4.1   182     9.3    0.00 
 245    5:40   0.00   78.4    51    6.3   184    11.6    0.00 
 245    5:45   0.00   78.2    52    5.5   158    12.1    0.00 
 245    5:50   0.00   77.8    53    4.6   130     7.1    0.00 
 245    5:55   0.00   77.7    54    4.7   128     7.1    0.00 
 245    6:00   0.00   77.6    55    4.5   140     8.2    0.00 
 245    6:05   0.00   77.4    56    4.6   151     8.2    0.00 
 245    6:10   0.01   77.4    56    3.7   160     8.8    0.00 
 245    6:15   0.01   77.2    57    1.5   179     4.3    0.00 
 245    6:20   0.02   77.1    57    2.7   155     6.5    0.00 
 245    6:25   0.03   77.6    56    4.8   172     9.3    0.00 
 245    6:30   0.05   77.9    56    5.4   172     9.3    0.00 
 245    6:35   0.06   78.0    56    4.4   142     8.2    0.00 
 245    6:40   0.07   78.0    56    2.6   135     6.5    0.00 
 245    6:45   0.09   78.1    56    3.2   166     7.1    0.00 
 245    6:50   0.10   78.2    57    4.5   155     7.7    0.00 
 245    6:55   0.11   78.4    57    5.9   143     9.3    0.00 
 245    7:00   0.13   78.6    58    6.0   147     8.8    0.00 
 245    7:05   0.14   78.9    58    4.5   162     9.3    0.00 
 245    7:10   0.16   79.1    58    5.5   162     8.8    0.00 
 245    7:15   0.18   79.3    57    5.3   182     8.8    0.00 
 245    7:20   0.17   79.5    57    5.5   187    11.0    0.00 
 245    7:25   0.21   79.5    57    5.2   179     9.9    0.00 
 245    7:30   0.23   79.8    56    6.5   185    12.1    0.00 
 245    7:35   0.24   80.0    56    6.7   182    10.5    0.00 
 245    7:40   0.26   80.1    56    8.0   183    12.7    0.00 
 245    7:45   0.28   80.2    56    6.8   186    14.4    0.00 
 245    7:50   0.30   80.5    56    7.1   179    11.0    0.00 
 245    7:55   0.32   80.7    55    6.8   190    11.0    0.00 
 245    8:00   0.34   80.9    55    6.1   194    11.6    0.00 
 245    8:05   0.36   80.6    55    6.3   216    12.1    0.00 
 245    8:10   0.37   80.7    55    4.6   208     8.8    0.00 
 245    8:15   0.39   81.0    54    3.8   210     7.7    0.00 
 245    8:20   0.41   81.2    54    5.7   214     8.8    0.00 
 245    8:25   0.44   81.4    54    3.5   213     7.7    0.00 
 245    8:30   0.46   81.7    53    6.1   205    11.0    0.00 
 245    8:35   0.48   81.8    53    6.0   220     9.3    0.00 
 245    8:40   0.50   82.1    52    6.2   204    11.0    0.00 
 245    8:45   0.50   82.3    50    6.0   217    10.5    0.00 
 245    8:50   0.52   82.8    50    5.8   202    11.6    0.00 
 245    8:55   0.52   83.4    50    4.0   187     8.2    0.00 
 245    9:00   0.53   83.8    50    3.7   179     8.8    0.00 
 245    9:05   0.54   84.5    48    3.1   192     8.8    0.00 
 245    9:10   0.56   84.6    47    4.8   206     8.2    0.00 
 245    9:15   0.57   83.9    48    6.2   217    11.6    0.00 
 245    9:20   0.59   83.7    48    3.3   196     7.7    0.00 
 245    9:25   0.57   84.9    47    5.2   213     9.9    0.00 
 245    9:30   0.63   84.4    47    7.0   213    12.1    0.00 
 245    9:35   0.53   84.5    46    5.8   219     9.3    0.00 
 245    9:40   0.63   86.1    45    4.2   157    12.7    0.00 
 245    9:45   0.66   87.5    43    4.3   176    10.5    0.00 
 245    9:50   0.66   86.7    42    6.1   216    11.0    0.00 
 245    9:55   0.67   85.9    44    6.2   220    11.6    0.00 
 245   10:00   0.69   86.2    41    7.5   233    12.1    0.00 
 245   10:05   0.70   85.6    42    6.8   210    11.6    0.00 
 245   10:10   0.71   86.0    42    5.4   211     8.8    0.00 
 245   10:15   0.72   86.3    41    6.7   230    11.0    0.00 
 245   10:20   0.73   86.8    40    4.8   220    10.5    0.00 
 245   10:25   0.74   88.7    37    3.3   136     7.7    0.00 
 245   10:30   0.75   89.0    37    4.2   168     8.8    0.00 
 245   10:35   0.76   88.6    35    8.2   200    11.6    0.00 
 245   10:40   0.77   88.0    37    6.5   197    10.5    0.00 
 245   10:45   0.78   90.1    37    3.9   157    11.6    0.00 
 245   10:50   0.79   90.8    34    5.8   196    11.0    0.00 
 245   10:55   0.80   89.4    34    5.4   208    11.6    0.00 
 245   11:00   0.80   89.3    34    6.0   199    11.0    0.00 
 245   11:05   0.81   89.7    34    6.8   220    13.3    0.00 
 245   11:10   0.82   89.8    33    6.4   226    11.6    0.00 
 245   11:15   0.82   89.2    35    8.4   234    13.3    0.00 
 245   11:20   0.83   89.8    33    4.7   236    13.3    0.00 
 245   11:25   0.84   89.8    34    7.9   230    13.3    0.00 
 245   11:30   0.84   89.4    34    7.2   214    12.1    0.00 

Return to Weather Top graphs page.


Western Regional Climate Center,wrcc@dri.edu